createdAt,value
2023-04-18T00:03:15.164Z,98848.95
2023-04-18T00:07:03.237Z,98853.23
2023-04-18T00:11:11.611Z,98849.27
2023-04-18T00:15:11.735Z,98851.19
2023-04-18T00:19:18.408Z,98851.66
2023-04-18T00:23:14.121Z,98846.17
2023-04-18T00:27:22.387Z,98843.54
2023-04-18T00:31:20.451Z,98842.14
2023-04-18T00:35:15.843Z,98840.98
2023-04-18T00:39:08.255Z,98842.54
2023-04-18T00:43:16.426Z,98846.35
2023-04-18T00:47:15.642Z,98841.42
2023-04-18T00:51:20.376Z,98838.89
2023-04-18T00:55:10.228Z,98842.13
2023-04-18T00:59:11.736Z,98840.52
2023-04-18T01:02:59.696Z,98839.05
2023-04-18T01:07:05.571Z,98836.00
2023-04-18T01:11:14.832Z,98834.27
2023-04-18T01:15:24.092Z,98827.91
2023-04-18T01:19:23.117Z,98826.11
2023-04-18T01:23:32.019Z,98826.95
2023-04-18T01:27:40.172Z,98826.38
2023-04-18T01:31:48.453Z,98826.60
2023-04-18T01:35:56.583Z,98824.36
2023-04-18T01:40:11.841Z,98830.45
2023-04-18T01:44:20.143Z,98834.11
2023-04-18T01:48:28.321Z,98836.95
2023-04-18T01:52:36.455Z,98831.80
2023-04-18T01:56:14.622Z,98835.11
2023-04-18T01:59:39.267Z,98832.38
2023-04-18T02:03:17.856Z,98831.26
2023-04-18T02:07:26.110Z,98826.96
2023-04-18T02:11:17.235Z,98827.19
2023-04-18T02:15:25.370Z,98830.11
2023-04-18T02:19:33.544Z,98825.27
2023-04-18T02:23:41.662Z,98824.98
2023-04-18T02:27:49.874Z,98822.97
2023-04-18T02:31:56.791Z,98827.07
2023-04-18T02:36:05.149Z,98828.08
2023-04-18T02:39:55.877Z,98829.94
2023-04-18T02:44:04.048Z,98832.44
2023-04-18T02:47:54.577Z,98827.56
2023-04-18T02:52:04.244Z,98828.76
2023-04-18T02:56:12.390Z,98832.88
2023-04-18T03:00:33.097Z,98832.02
2023-04-18T03:04:56.146Z,98838.09
2023-04-18T03:08:47.293Z,98838.70
2023-04-18T03:12:45.636Z,98838.80
2023-04-18T03:16:55.208Z,98842.40
2023-04-18T03:21:03.953Z,98842.59
2023-04-18T03:24:52.128Z,98841.94
2023-04-18T03:29:00.392Z,98842.58
2023-04-18T03:33:07.218Z,98842.08
2023-04-18T03:37:15.418Z,98844.52
2023-04-18T03:41:23.588Z,98845.48
2023-04-18T03:45:25.813Z,98846.45
2023-04-18T03:49:34.067Z,98849.04
2023-04-18T03:53:24.058Z,98842.58
2023-04-18T03:57:32.237Z,98843.30
2023-04-18T04:01:34.325Z,98841.35
2023-04-18T04:05:42.647Z,98838.11
2023-04-18T04:09:13.906Z,98839.69
2023-04-18T04:12:36.687Z,98847.62
2023-04-18T04:16:13.696Z,98849.27
2023-04-18T04:19:49.170Z,98845.89
2023-04-18T04:23:40.202Z,98849.60
2023-04-18T04:27:06.995Z,98850.83
2023-04-18T04:30:43.638Z,98854.04
2023-04-18T04:33:33.361Z,98859.84
2023-04-18T04:36:33.160Z,98859.52
2023-04-18T04:39:23.310Z,98860.45
2023-04-18T04:43:29.040Z,98865.93
2023-04-18T04:47:28.397Z,98863.13
2023-04-18T04:50:47.007Z,98861.38
2023-04-18T04:54:20.865Z,98862.54
2023-04-18T04:58:04.057Z,98862.41
2023-04-18T05:01:41.582Z,98864.10
2023-04-18T05:04:44.216Z,98865.80
2023-04-18T05:08:19.264Z,98867.12
2023-04-18T05:11:30.522Z,98866.96
2023-04-18T05:14:23.498Z,98867.16
2023-04-18T05:16:56.725Z,98873.70
2023-04-18T05:20:14.708Z,98871.04
2023-04-18T05:22:59.338Z,98873.31
2023-04-18T05:25:57.584Z,98871.84
2023-04-18T05:28:48.007Z,98869.17
2023-04-18T05:32:25.965Z,98873.42
2023-04-18T05:35:47.414Z,98872.10
2023-04-18T05:38:49.123Z,98874.75
2023-04-18T05:42:37.419Z,98873.19
2023-04-18T05:45:13.582Z,98870.36
2023-04-18T05:48:21.428Z,98869.70
2023-04-18T05:52:12.013Z,98870.66
2023-04-18T05:55:48.905Z,98867.17
2023-04-18T05:58:52.713Z,98868.38
2023-04-18T06:01:51.698Z,98869.42
2023-04-18T06:04:22.268Z,98867.89
2023-04-18T06:07:16.336Z,98870.89
2023-04-18T06:10:17.101Z,98869.44
2023-04-18T06:12:44.274Z,98863.84
2023-04-18T06:15:31.935Z,98868.19
2023-04-18T06:18:30.287Z,98868.64
2023-04-18T06:21:31.469Z,98865.09
2023-04-18T06:24:09.455Z,98868.04
2023-04-18T06:27:47.344Z,98867.40
2023-04-18T06:30:22.025Z,98865.52
2023-04-18T06:33:11.229Z,98866.40
2023-04-18T06:35:48.857Z,98863.35
2023-04-18T06:38:35.104Z,98864.40
2023-04-18T06:41:05.124Z,98863.09
2023-04-18T06:43:32.650Z,98862.89
2023-04-18T06:46:21.577Z,98859.00
2023-04-18T06:48:59.798Z,98856.13
2023-04-18T06:51:30.082Z,98855.80
2023-04-18T06:54:27.457Z,98853.05
2023-04-18T06:56:54.747Z,98852.84
2023-04-18T07:00:02.643Z,98848.05
2023-04-18T07:03:13.597Z,98846.64
2023-04-18T07:05:44.318Z,98842.70
2023-04-18T07:08:19.087Z,98841.25
2023-04-18T07:11:15.814Z,98842.45
2023-04-18T07:13:43.444Z,98838.16
2023-04-18T07:16:50.123Z,98838.39
2023-04-18T07:19:45.497Z,98843.31
2023-04-18T07:22:38.689Z,98841.90
2023-04-18T07:25:56.361Z,98841.52
2023-04-18T07:29:14.403Z,98838.76
2023-04-18T07:31:53.577Z,98839.44
2023-04-18T07:34:37.309Z,98838.98
2023-04-18T07:37:04.856Z,98835.89
2023-04-18T07:39:35.968Z,98830.73
2023-04-18T07:42:12.113Z,98836.00
2023-04-18T07:45:17.913Z,98833.52
2023-04-18T07:47:50.964Z,98833.98
2023-04-18T07:50:57.610Z,98834.89
2023-04-18T07:53:45.021Z,98833.92
2023-04-18T07:56:35.326Z,98833.79
2023-04-18T07:59:18.123Z,98838.39
2023-04-18T08:01:45.932Z,98836.27
2023-04-18T08:04:14.772Z,98835.63
2023-04-18T08:07:37.184Z,98837.89
2023-04-18T08:10:25.328Z,98836.61
2023-04-18T08:13:26.148Z,98841.06
2023-04-18T08:15:53.609Z,98848.76
2023-04-18T08:18:44.843Z,98863.09
2023-04-18T08:21:31.332Z,98868.92
2023-04-18T08:24:01.418Z,98871.75
2023-04-18T08:26:34.534Z,98875.23
2023-04-18T08:29:34.615Z,98870.61
2023-04-18T08:32:20.764Z,98874.60
2023-04-18T08:34:48.382Z,98873.26
2023-04-18T08:37:28.555Z,98875.11
2023-04-18T08:40:39.499Z,98876.17
2023-04-18T08:43:09.483Z,98875.70
2023-04-18T08:46:12.752Z,98871.58
2023-04-18T08:48:40.117Z,98877.20
2023-04-18T08:51:07.958Z,98873.09
2023-04-18T08:54:38.825Z,98871.20
2023-04-18T08:58:37.623Z,98874.66
2023-04-18T09:01:25.267Z,98863.56
2023-04-18T09:04:03.584Z,98863.34
2023-04-18T09:06:36.453Z,98861.63
2023-04-18T09:09:37.357Z,98859.73
2023-04-18T09:12:13.609Z,98850.46
2023-04-18T09:15:16.623Z,98851.56
2023-04-18T09:18:20.107Z,98849.60
2023-04-18T09:21:19.723Z,98849.11
2023-04-18T09:24:27.234Z,98848.31
2023-04-18T09:26:59.828Z,98853.52
2023-04-18T09:30:08.615Z,98850.55
2023-04-18T09:32:57.466Z,98854.75
2023-04-18T09:35:34.845Z,98854.95
2023-04-18T09:38:14.911Z,98853.83
2023-04-18T09:41:09.518Z,98862.24
2023-04-18T09:43:48.483Z,98866.23
2023-04-18T09:46:28.164Z,98863.16
2023-04-18T09:48:57.967Z,98864.97
2023-04-18T09:51:25.127Z,98865.24
2023-04-18T09:53:55.299Z,98867.16
2023-04-18T09:56:41.124Z,98868.20
2023-04-18T09:59:10.035Z,98869.39
2023-04-18T10:01:37.684Z,98866.56
2023-04-18T10:04:17.922Z,98867.29
2023-04-18T10:06:48.633Z,98858.23
2023-04-18T10:09:16.585Z,98858.51
2023-04-18T10:11:43.753Z,98863.97
2023-04-18T10:14:13.042Z,98864.45
2023-04-18T10:16:40.809Z,98866.10
2023-04-18T10:19:25.428Z,98862.48
2023-04-18T10:22:12.655Z,98860.63
2023-04-18T10:24:57.341Z,98854.81
2023-04-18T10:28:08.177Z,98858.27
2023-04-18T10:30:44.463Z,98858.73
2023-04-18T10:33:37.117Z,98856.50
2023-04-18T10:36:09.321Z,98851.67
2023-04-18T10:39:32.005Z,98853.31
2023-04-18T10:42:20.509Z,98856.27
2023-04-18T10:45:19.633Z,98858.50
2023-04-18T10:51:40.768Z,98859.73
2023-04-18T10:54:12.192Z,98862.06
2023-04-18T10:56:58.355Z,98858.96
2023-04-18T10:59:31.171Z,98861.58
2023-04-18T11:02:24.600Z,98864.95
2023-04-18T11:05:18.583Z,98860.87
2023-04-18T11:07:56.341Z,98853.77
2023-04-18T11:10:26.353Z,98854.57
2023-04-18T11:12:54.784Z,98850.20
2023-04-18T11:15:45.286Z,98846.13
2023-04-18T11:18:16.130Z,98842.22
2023-04-18T11:21:06.496Z,98840.80
2023-04-18T11:23:39.726Z,98842.45
2023-04-18T11:26:07.674Z,98841.56
2023-04-18T11:28:48.051Z,98835.98
2023-04-18T11:32:14.447Z,98834.23
2023-04-18T11:34:55.261Z,98826.80
2023-04-18T11:37:50.170Z,98824.87
2023-04-18T11:40:46.461Z,98821.46
2023-04-18T11:43:24.608Z,98821.20
2023-04-18T11:46:18.699Z,98813.08
2023-04-18T11:49:06.600Z,98807.29
2023-04-18T11:51:50.200Z,98803.05
2023-04-18T11:55:08.862Z,98801.30
2023-04-18T11:57:38.802Z,98797.35
2023-04-18T12:00:43.789Z,98797.13
2023-04-18T12:03:37.864Z,98794.16
2023-04-18T12:06:29.337Z,98791.41
2023-04-18T12:09:30.952Z,98790.20
2023-04-18T12:12:41.642Z,98793.15
2023-04-18T12:15:34.902Z,98788.13
2023-04-18T12:18:48.521Z,98788.23
2023-04-18T12:21:18.514Z,98784.94
2023-04-18T12:24:16.720Z,98782.17
2023-04-18T12:26:47.407Z,98786.23
2023-04-18T12:29:14.795Z,98779.95
2023-04-18T12:32:11.195Z,98783.71
2023-04-18T12:34:39.629Z,98785.66
2023-04-18T12:37:49.665Z,98781.05
2023-04-18T12:40:39.245Z,98782.64
2023-04-18T12:43:11.329Z,98782.60
2023-04-18T12:45:59.550Z,98785.31
2023-04-18T12:48:32.078Z,98785.11
2023-04-18T12:51:39.715Z,98782.11
2023-04-18T12:54:38.627Z,98780.88
2023-04-18T12:57:31.692Z,98782.29
2023-04-18T13:00:20.335Z,98778.95
2023-04-18T13:03:15.545Z,98776.74
2023-04-18T13:06:24.537Z,98778.39
2023-04-18T13:09:21.303Z,98770.83
2023-04-18T13:11:58.740Z,98770.55
2023-04-18T13:14:26.729Z,98773.42
2023-04-18T13:16:54.169Z,98772.27
2023-04-18T13:19:44.734Z,98770.32
2023-04-18T13:22:24.040Z,98771.17
2023-04-18T13:25:00.542Z,98770.80
2023-04-18T13:28:01.128Z,98772.76
2023-04-18T13:30:32.161Z,98771.98
2023-04-18T13:33:02.604Z,98773.78
2023-04-18T13:35:32.815Z,98766.82
2023-04-18T13:38:04.349Z,98766.82
2023-04-18T13:41:12.348Z,98765.08
2023-04-18T13:44:00.283Z,98767.56
2023-04-18T13:46:49.049Z,98761.73
2023-04-18T13:50:01.673Z,98764.45
2023-04-18T13:53:20.984Z,98771.23
2023-04-18T13:56:08.482Z,98765.67
2023-04-18T13:58:41.219Z,98762.00
2023-04-18T14:01:41.358Z,98767.91
2023-04-18T14:04:35.533Z,98764.69
2023-04-18T14:07:24.093Z,98760.88
2023-04-18T14:10:05.931Z,98758.39
2023-04-18T14:12:50.666Z,98759.52
2023-04-18T14:15:23.161Z,98758.76
2023-04-18T14:17:58.206Z,98760.59
2023-04-18T14:20:58.536Z,98759.08
2023-04-18T14:23:59.211Z,98756.10
2023-04-18T14:26:46.031Z,98754.71
2023-04-18T14:29:30.592Z,98757.08
2023-04-18T14:31:58.434Z,98753.44
2023-04-18T14:34:31.136Z,98756.34
2023-04-18T14:37:00.246Z,98754.97
2023-04-18T14:39:56.182Z,98759.18
2023-04-18T14:42:43.922Z,98755.76
2023-04-18T14:45:36.875Z,98757.46
2023-04-18T14:48:10.352Z,98760.98
2023-04-18T14:51:08.986Z,98764.92
2023-04-18T14:53:38.409Z,98766.45
2023-04-18T14:56:24.574Z,98774.05
2023-04-18T14:59:02.809Z,98768.25
2023-04-18T15:01:33.019Z,98760.77
2023-04-18T15:04:04.581Z,98760.10
2023-04-18T15:06:36.243Z,98763.63
2023-04-18T15:09:27.082Z,98759.75
2023-04-18T15:12:31.332Z,98749.32
2023-04-18T15:15:13.198Z,98750.05
2023-04-18T15:18:00.951Z,98753.84
2023-04-18T15:20:54.114Z,98752.31
2023-04-18T15:23:21.525Z,98758.44
2023-04-18T15:25:49.064Z,98753.25
2023-04-18T15:28:19.319Z,98755.21
2023-04-18T15:31:00.039Z,98755.81
2023-04-18T15:33:54.758Z,98749.95
2023-04-18T15:36:24.895Z,98749.55
2023-04-18T15:38:59.589Z,98746.89
2023-04-18T15:41:33.650Z,98740.02
2023-04-18T15:44:10.098Z,98732.77
2023-04-18T15:46:37.415Z,98726.42
2023-04-18T15:49:07.416Z,98724.54
2023-04-18T15:52:06.909Z,98713.86
2023-04-18T15:54:35.270Z,98714.53
2023-04-18T15:57:03.135Z,98719.64
2023-04-18T15:59:36.598Z,98731.95
2023-04-18T16:02:04.114Z,98740.63
2023-04-18T16:04:33.863Z,98741.49
2023-04-18T16:07:08.368Z,98748.33
2023-04-18T16:09:38.712Z,98746.67
2023-04-18T16:12:11.156Z,98751.10
2023-04-18T16:14:57.856Z,98751.80
2023-04-18T16:17:28.082Z,98751.64
2023-04-18T16:20:15.649Z,98750.31
2023-04-18T16:22:51.430Z,98757.17
2023-04-18T16:25:21.389Z,98754.60
2023-04-18T16:28:30.072Z,98752.54
2023-04-18T16:30:59.518Z,98755.46
2023-04-18T16:33:34.297Z,98761.11
2023-04-18T16:36:34.737Z,98762.06
2023-04-18T16:39:04.802Z,98767.45
2023-04-18T16:41:38.844Z,98767.08
2023-04-18T16:44:12.456Z,98765.33
2023-04-18T16:47:05.151Z,98770.33
2023-04-18T16:50:01.996Z,98768.55
2023-04-18T16:52:44.930Z,98764.07
2023-04-18T16:55:19.349Z,98761.98
2023-04-18T16:57:56.884Z,98762.64
2023-04-18T17:00:24.285Z,98757.52
2023-04-18T17:02:55.935Z,98754.36
2023-04-18T17:05:39.392Z,98748.73
2023-04-18T17:08:09.375Z,98754.14
2023-04-18T17:10:42.590Z,98748.80
2023-04-18T17:13:46.964Z,98748.40
2023-04-18T17:16:26.399Z,98748.33
2023-04-18T17:18:56.956Z,98744.89
2023-04-18T17:21:24.480Z,98745.66
2023-04-18T17:23:57.183Z,98746.61
2023-04-18T17:26:27.845Z,98743.73
2023-04-18T17:28:58.232Z,98739.14
2023-04-18T17:31:25.718Z,98740.29
2023-04-18T17:34:13.166Z,98740.27
2023-04-18T17:36:46.705Z,98738.08
2023-04-18T17:39:16.445Z,98738.76
2023-04-18T17:41:50.736Z,98740.02
2023-04-18T17:44:23.767Z,98744.83
2023-04-18T17:46:58.747Z,98755.98
2023-04-18T17:49:30.877Z,98760.55
2023-04-18T17:52:01.476Z,98763.02
2023-04-18T17:54:28.806Z,98771.85
2023-04-18T17:56:56.806Z,98779.81
2023-04-18T17:59:24.550Z,98785.84
2023-04-18T18:01:51.807Z,98782.79
2023-04-18T18:04:20.058Z,98775.13
2023-04-18T18:06:54.986Z,98769.97
2023-04-18T18:09:25.052Z,98771.65
2023-04-18T18:11:56.020Z,98772.59
2023-04-18T18:14:29.015Z,98773.85
2023-04-18T18:16:56.679Z,98775.39
2023-04-18T18:19:29.285Z,98772.38
2023-04-18T18:21:56.680Z,98766.81
2023-04-18T18:24:27.555Z,98764.14
2023-04-18T18:27:44.180Z,98761.13
2023-04-18T18:30:20.498Z,98761.42
2023-04-18T18:32:54.322Z,98761.30
2023-04-18T18:35:31.783Z,98756.50
2023-04-18T18:38:07.336Z,98754.52
2023-04-18T18:40:37.107Z,98749.08
2023-04-18T18:43:16.510Z,98741.10
2023-04-18T18:45:51.233Z,98740.21
2023-04-18T18:48:23.383Z,98742.23
2023-04-18T18:50:51.474Z,98743.39
2023-04-18T18:53:19.060Z,98745.95
2023-04-18T18:56:08.726Z,98742.98
2023-04-18T18:58:39.177Z,98741.11
2023-04-18T19:01:06.821Z,98742.13
2023-04-18T19:03:34.899Z,98743.40
2023-04-18T19:06:04.291Z,98749.45
2023-04-18T19:08:39.167Z,98749.06
2023-04-18T19:11:19.294Z,98742.81
2023-04-18T19:13:57.881Z,98744.70
2023-04-18T19:16:35.949Z,98741.20
2023-04-18T19:19:03.705Z,98742.64
2023-04-18T19:21:33.328Z,98739.02
2023-04-18T19:24:00.513Z,98740.42
2023-04-18T19:26:27.741Z,98741.52
2023-04-18T19:28:55.316Z,98736.15
2023-04-18T19:31:22.843Z,98738.52
2023-04-18T19:33:58.822Z,98734.48
2023-04-18T19:36:54.806Z,98736.95
2023-04-18T19:40:14.284Z,98738.27
2023-04-18T19:42:53.885Z,98738.91
2023-04-18T19:45:38.952Z,98732.26
2023-04-18T19:48:24.443Z,98735.67
2023-04-18T19:51:02.902Z,98733.73
2023-04-18T19:53:41.592Z,98726.20
2023-04-18T19:56:13.332Z,98727.11
2023-04-18T19:59:13.053Z,98726.32
2023-04-18T20:02:01.434Z,98723.04
2023-04-18T20:04:42.029Z,98717.66
2023-04-18T20:07:15.126Z,98714.35
2023-04-18T20:09:44.688Z,98715.41
2023-04-18T20:12:55.375Z,98714.14
2023-04-18T20:15:46.067Z,98714.46
2023-04-18T20:18:25.610Z,98712.00
2023-04-18T20:21:58.476Z,98708.67
2023-04-18T20:24:49.197Z,98700.60
2023-04-18T20:27:24.652Z,98699.19
2023-04-18T20:29:52.095Z,98696.05
2023-04-18T20:32:33.390Z,98687.79
2023-04-18T20:35:04.499Z,98685.85
2023-04-18T20:38:25.966Z,98682.97
2023-04-18T20:41:21.285Z,98680.59
2023-04-18T20:44:11.058Z,98674.63
2023-04-18T20:47:32.726Z,98676.50
2023-04-18T20:51:06.231Z,98672.45
2023-04-18T20:54:13.670Z,98665.56
2023-04-18T20:57:51.682Z,98665.20
2023-04-18T21:01:42.268Z,98658.02
2023-04-18T21:05:21.503Z,98653.33
2023-04-18T21:08:17.562Z,98655.12
2023-04-18T21:12:05.744Z,98654.48
2023-04-18T21:16:07.038Z,98650.02
2023-04-18T21:19:41.320Z,98645.09
2023-04-18T21:23:32.263Z,98638.11
2023-04-18T21:27:40.364Z,98631.86
2023-04-18T21:31:23.060Z,98631.34
2023-04-18T21:34:36.781Z,98625.09
2023-04-18T21:38:37.478Z,98620.54
2023-04-18T21:42:47.764Z,98611.60
2023-04-18T21:46:41.157Z,98605.22
2023-04-18T21:50:50.237Z,98605.40
2023-04-18T21:54:14.222Z,98606.97
2023-04-18T21:58:22.492Z,98600.67
2023-04-18T22:02:10.620Z,98598.48
2023-04-18T22:05:33.866Z,98598.93
2023-04-18T22:09:08.800Z,98594.02
2023-04-18T22:12:32.476Z,98590.14
2023-04-18T22:16:09.282Z,98585.23
2023-04-18T22:20:10.537Z,98578.09
2023-04-18T22:23:59.485Z,98573.38
2023-04-18T22:27:26.706Z,98561.27
2023-04-18T22:31:07.450Z,98549.73
2023-04-18T22:34:37.088Z,98553.89
2023-04-18T22:38:43.882Z,98549.93
2023-04-18T22:42:21.923Z,98546.61
2023-04-18T22:46:22.097Z,98542.34
2023-04-18T22:50:23.752Z,98538.45
2023-04-18T22:54:32.886Z,98541.80
2023-04-18T22:58:23.992Z,98544.56
2023-04-18T23:02:20.915Z,98534.40
2023-04-18T23:06:29.416Z,98531.61
2023-04-18T23:10:11.180Z,98530.85
2023-04-18T23:14:19.313Z,98527.98
2023-04-18T23:18:17.237Z,98525.20
2023-04-18T23:22:25.475Z,98517.92
2023-04-18T23:26:33.714Z,98511.51
2023-04-18T23:30:32.597Z,98504.86
2023-04-18T23:34:00.609Z,98500.00
2023-04-18T23:38:17.237Z,98498.29
2023-04-18T23:42:04.167Z,98495.68
2023-04-18T23:46:12.337Z,98492.00
2023-04-18T23:50:00.448Z,98490.43
2023-04-18T23:53:40.556Z,98480.74
2023-04-18T23:57:31.682Z,98476.77
